createdAt,value
2018-11-13T00:00:58.955Z,1009.1
2018-11-13T00:02:04.985Z,1009.2
2018-11-13T00:03:12.678Z,1009.2
2018-11-13T00:04:17.749Z,1009.2
2018-11-13T00:05:23.705Z,1009.2
2018-11-13T00:06:39.412Z,1009.1
2018-11-13T00:07:44.003Z,1009.1
2018-11-13T00:08:46.019Z,1009.2
2018-11-13T00:09:48.034Z,1009.2
2018-11-13T00:10:50.061Z,1009.3
2018-11-13T00:11:52.092Z,1009.3
2018-11-13T00:12:54.111Z,1009.3
2018-11-13T00:13:56.450Z,1009.3
2018-11-13T00:14:58.869Z,1009.3
2018-11-13T00:16:00.887Z,1009.3
2018-11-13T00:17:02.922Z,1009.3
2018-11-13T00:18:05.227Z,1009.3
2018-11-13T00:19:07.249Z,1009.3
2018-11-13T00:20:09.272Z,1009.2
2018-11-13T00:21:11.583Z,1009.2
2018-11-13T00:22:13.601Z,1009.2
2018-11-13T00:23:15.622Z,1009.2
2018-11-13T00:24:17.651Z,1009.2
2018-11-13T00:25:19.668Z,1009.2
2018-11-13T00:26:21.700Z,1009.1
2018-11-13T00:27:23.734Z,1009.1
2018-11-13T00:28:26.073Z,1009.1
2018-11-13T00:29:28.395Z,1009.2
2018-11-13T00:30:30.398Z,1009.2
2018-11-13T00:31:32.415Z,1009.3
2018-11-13T00:32:34.435Z,1009.3
2018-11-13T00:33:36.470Z,1009.3
2018-11-13T00:34:38.774Z,1009.2
2018-11-13T00:35:40.953Z,1009.2
2018-11-13T00:36:42.981Z,1009.2
2018-11-13T00:37:45.004Z,1009.3
2018-11-13T00:38:47.024Z,1009.3
2018-11-13T00:39:49.399Z,1009.3
2018-11-13T00:40:51.709Z,1009.3
2018-11-13T00:41:54.116Z,1009.3
2018-11-13T00:42:56.148Z,1009.3
2018-11-13T00:43:58.461Z,1009.3
2018-11-13T00:45:00.492Z,1009.4
2018-11-13T00:46:02.591Z,1009.3
2018-11-13T00:47:05.388Z,1009.3
2018-11-13T00:48:07.418Z,1009.3
2018-11-13T00:49:09.824Z,1009.4
2018-11-13T00:50:11.864Z,1009.4
2018-11-13T00:51:14.151Z,1009.4
2018-11-13T00:52:16.179Z,1009.5
2018-11-13T00:53:18.197Z,1009.4
2018-11-13T00:54:20.618Z,1009.4
2018-11-13T00:55:22.637Z,1009.4
2018-11-13T00:56:24.661Z,1009.4
2018-11-13T00:57:26.692Z,1009.4
2018-11-13T00:58:28.703Z,1009.4
2018-11-13T00:59:31.974Z,1009.5
2018-11-13T01:00:34.402Z,1009.5
2018-11-13T01:01:36.433Z,1009.5
2018-11-13T01:02:38.450Z,1009.4
2018-11-13T01:03:40.790Z,1009.4
2018-11-13T01:04:43.096Z,1009.5
2018-11-13T01:05:45.817Z,1009.4
2018-11-13T01:06:47.849Z,1009.4
2018-11-13T01:07:51.396Z,1009.4
2018-11-13T01:08:53.924Z,1009.4
2018-11-13T01:09:55.952Z,1009.4
2018-11-13T01:10:58.365Z,1009.4
2018-11-13T01:12:00.381Z,1009.4
2018-11-13T01:13:02.413Z,1009.4
2018-11-13T01:14:04.433Z,1009.5
2018-11-13T01:15:06.510Z,1009.4
2018-11-13T01:16:10.569Z,1009.4
2018-11-13T01:17:12.592Z,1009.4
2018-11-13T01:18:14.612Z,1009.4
2018-11-13T01:19:16.631Z,1009.4
2018-11-13T01:20:18.647Z,1009.5
2018-11-13T01:21:20.663Z,1009.5
2018-11-13T01:22:23.080Z,1009.5
2018-11-13T01:23:25.851Z,1009.5
2018-11-13T01:24:27.880Z,1009.5
2018-11-13T01:25:29.905Z,1009.6
2018-11-13T01:26:31.937Z,1009.6
2018-11-13T01:27:34.244Z,1009.5
2018-11-13T01:28:36.268Z,1009.6
2018-11-13T01:29:38.285Z,1009.6
2018-11-13T01:30:40.304Z,1009.6
2018-11-13T01:31:42.336Z,1009.6
2018-11-13T01:32:44.352Z,1009.6
2018-11-13T01:33:46.372Z,1009.6
2018-11-13T01:34:48.682Z,1009.6
2018-11-13T01:35:50.711Z,1009.6
2018-11-13T01:36:53.112Z,1009.6
2018-11-13T01:37:55.141Z,1009.6
2018-11-13T01:38:57.502Z,1009.6
2018-11-13T01:39:59.515Z,1009.6
2018-11-13T01:41:01.831Z,1009.6
2018-11-13T01:42:03.854Z,1009.6
2018-11-13T01:43:05.875Z,1009.6
2018-11-13T01:44:08.184Z,1009.6
2018-11-13T01:45:10.211Z,1009.6
2018-11-13T01:46:12.515Z,1009.6
2018-11-13T01:47:14.540Z,1009.6
2018-11-13T01:48:16.855Z,1009.6
2018-11-13T01:49:18.871Z,1009.6
2018-11-13T01:50:20.892Z,1009.6
2018-11-13T01:51:22.924Z,1009.5
2018-11-13T01:52:24.939Z,1009.5
2018-11-13T01:53:26.965Z,1009.5
2018-11-13T01:54:29.015Z,1009.6
2018-11-13T01:55:32.761Z,1009.6
2018-11-13T01:56:34.791Z,1009.6
2018-11-13T01:57:36.808Z,1009.6
2018-11-13T01:58:39.216Z,1009.5
2018-11-13T01:59:41.236Z,1009.5
2018-11-13T02:00:43.261Z,1009.5
2018-11-13T02:01:45.291Z,1009.5
2018-11-13T02:02:47.705Z,1009.6
2018-11-13T02:03:50.006Z,1009.6
2018-11-13T02:04:52.042Z,1009.6
2018-11-13T02:05:54.342Z,1009.6
2018-11-13T02:06:57.031Z,1009.7
2018-11-13T02:07:59.051Z,1009.6
2018-11-13T02:09:01.080Z,1009.6
2018-11-13T02:10:03.095Z,1009.6
2018-11-13T02:11:05.119Z,1009.6
2018-11-13T02:12:07.150Z,1009.7
2018-11-13T02:13:09.732Z,1009.7
2018-11-13T02:14:12.148Z,1009.8
2018-11-13T02:15:14.172Z,1009.8
2018-11-13T02:16:16.188Z,1009.9
2018-11-13T02:17:18.210Z,1009.8
2018-11-13T02:18:20.239Z,1009.9
2018-11-13T02:19:22.259Z,1009.9
2018-11-13T02:20:24.571Z,1009.9
2018-11-13T02:21:26.591Z,1009.9
2018-11-13T02:22:28.600Z,1009.9
2018-11-13T02:23:30.622Z,1009.9
2018-11-13T02:24:32.653Z,1009.8
2018-11-13T02:25:35.061Z,1009.7
2018-11-13T02:26:37.089Z,1009.7
2018-11-13T02:27:39.119Z,1009.6
2018-11-13T02:28:41.138Z,1009.7
2018-11-13T02:29:43.169Z,1009.6
2018-11-13T02:30:45.577Z,1009.6
2018-11-13T02:31:48.271Z,1009.6
2018-11-13T02:32:50.293Z,1009.5
2018-11-13T02:33:52.322Z,1009.5
2018-11-13T02:34:54.641Z,1009.6
2018-11-13T02:35:56.664Z,1009.5
2018-11-13T02:36:58.692Z,1009.5
2018-11-13T02:38:01.106Z,1009.5
2018-11-13T02:39:03.419Z,1009.5
2018-11-13T02:40:06.107Z,1009.5
2018-11-13T02:41:08.126Z,1009.5
2018-11-13T02:42:10.150Z,1009.5
2018-11-13T02:43:12.458Z,1009.6
2018-11-13T02:44:14.884Z,1009.7
2018-11-13T02:45:16.910Z,1009.7
2018-11-13T02:46:18.926Z,1009.7
2018-11-13T02:47:21.369Z,1009.7
2018-11-13T02:48:25.167Z,1009.7
2018-11-13T02:49:27.944Z,1009.6
2018-11-13T02:50:29.995Z,1009.6
2018-11-13T02:51:32.026Z,1009.6
2018-11-13T02:52:34.324Z,1009.7
2018-11-13T02:53:36.353Z,1009.6
2018-11-13T02:54:38.695Z,1009.7
2018-11-13T02:55:40.707Z,1009.7
2018-11-13T02:56:43.010Z,1009.7
2018-11-13T02:57:45.428Z,1009.6
2018-11-13T02:58:48.458Z,1009.6
2018-11-13T02:59:50.483Z,1009.7
2018-11-13T03:00:52.512Z,1009.7
2018-11-13T03:01:54.533Z,1009.8
2018-11-13T03:02:56.563Z,1009.8
2018-11-13T03:03:58.579Z,1009.8
2018-11-13T03:05:00.890Z,1009.8
2018-11-13T03:06:02.904Z,1009.8
2018-11-13T03:07:05.237Z,1009.7
2018-11-13T03:08:07.256Z,1009.7
2018-11-13T03:09:09.846Z,1009.7
2018-11-13T03:10:11.871Z,1009.6
2018-11-13T03:11:13.889Z,1009.7
2018-11-13T03:12:15.923Z,1009.6
2018-11-13T03:13:17.951Z,1009.6
2018-11-13T03:14:19.986Z,1009.5
2018-11-13T03:15:22.290Z,1009.5
2018-11-13T03:16:24.319Z,1009.5
2018-11-13T03:17:26.745Z,1009.5
2018-11-13T03:18:28.782Z,1009.4
2018-11-13T03:19:31.373Z,1009.4
2018-11-13T03:20:34.357Z,1009.4
2018-11-13T03:21:36.382Z,1009.4
2018-11-13T03:22:38.407Z,1009.4
2018-11-13T03:23:40.712Z,1009.3
2018-11-13T03:24:42.746Z,1009.4
2018-11-13T03:25:45.046Z,1009.4
2018-11-13T03:26:47.075Z,1009.4
2018-11-13T03:27:49.104Z,1009.4
2018-11-13T03:28:51.116Z,1009.4
2018-11-13T03:29:53.420Z,1009.4
2018-11-13T03:30:55.932Z,1009.4
2018-11-13T03:31:58.279Z,1009.5
2018-11-13T03:33:00.584Z,1009.4
2018-11-13T03:34:03.214Z,1009.5
2018-11-13T03:35:05.525Z,1009.5
2018-11-13T03:36:08.131Z,1009.5
2018-11-13T03:37:11.216Z,1009.5
2018-11-13T03:38:13.526Z,1009.5
2018-11-13T03:39:15.849Z,1009.5
2018-11-13T03:40:17.876Z,1009.5
2018-11-13T03:41:20.480Z,1009.5
2018-11-13T03:42:22.806Z,1009.5
2018-11-13T03:43:24.838Z,1009.5
2018-11-13T03:44:26.847Z,1009.5
2018-11-13T03:45:29.163Z,1009.5
2018-11-13T03:46:31.190Z,1009.5
2018-11-13T03:47:33.216Z,1009.5
2018-11-13T03:48:35.237Z,1009.5
2018-11-13T03:49:37.265Z,1009.5
2018-11-13T03:50:39.568Z,1009.5
2018-11-13T03:51:41.585Z,1009.5
2018-11-13T03:52:43.632Z,1009.5
2018-11-13T03:53:46.237Z,1009.5
2018-11-13T03:54:48.260Z,1009.5
2018-11-13T03:55:50.288Z,1009.5
2018-11-13T03:56:52.597Z,1009.5
2018-11-13T03:57:54.615Z,1009.5
2018-11-13T03:58:56.637Z,1009.5
2018-11-13T03:59:58.963Z,1009.5
2018-11-13T04:01:01.002Z,1009.5
2018-11-13T04:02:03.323Z,1009.6
2018-11-13T04:03:05.960Z,1009.6
2018-11-13T04:04:07.979Z,1009.5
2018-11-13T04:05:11.257Z,1009.4
2018-11-13T04:06:13.276Z,1009.4
2018-11-13T04:07:15.572Z,1009.4
2018-11-13T04:08:17.893Z,1009.4
2018-11-13T04:09:20.578Z,1009.4
2018-11-13T04:10:22.605Z,1009.5
2018-11-13T04:11:24.933Z,1009.6
2018-11-13T04:12:27.538Z,1009.6
2018-11-13T04:13:30.127Z,1009.6
2018-11-13T04:14:32.156Z,1009.6
2018-11-13T04:15:34.479Z,1009.6
2018-11-13T04:16:36.777Z,1009.6
2018-11-13T04:17:39.098Z,1009.6
2018-11-13T04:18:41.115Z,1009.6
2018-11-13T04:19:43.137Z,1009.6
2018-11-13T04:20:45.162Z,1009.7
2018-11-13T04:21:47.184Z,1009.8
2018-11-13T04:22:49.216Z,1009.8
2018-11-13T04:23:52.107Z,1009.8
2018-11-13T04:24:54.136Z,1009.8
2018-11-13T04:25:56.149Z,1009.8
2018-11-13T04:26:58.464Z,1009.7
2018-11-13T04:28:00.486Z,1009.7
2018-11-13T04:29:02.812Z,1009.8
2018-11-13T04:30:04.826Z,1009.7
2018-11-13T04:31:07.139Z,1009.8
2018-11-13T04:32:09.164Z,1009.8
2018-11-13T04:33:11.184Z,1009.8
2018-11-13T04:34:13.203Z,1009.8
2018-11-13T04:35:15.236Z,1009.8
2018-11-13T04:36:17.259Z,1009.7
2018-11-13T04:37:19.967Z,1009.8
2018-11-13T04:38:21.997Z,1009.7
2018-11-13T04:39:24.403Z,1009.7
2018-11-13T04:40:26.418Z,1009.7
2018-11-13T04:41:28.451Z,1009.7
2018-11-13T04:42:30.469Z,1009.6
2018-11-13T04:43:32.499Z,1009.6
2018-11-13T04:44:34.818Z,1009.5
2018-11-13T04:45:37.529Z,1009.5
2018-11-13T04:46:39.545Z,1009.5
2018-11-13T04:47:41.855Z,1009.5
2018-11-13T04:48:44.174Z,1009.5
2018-11-13T04:49:46.194Z,1009.5
2018-11-13T04:50:48.530Z,1009.5
2018-11-13T04:51:50.549Z,1009.5
2018-11-13T04:52:53.141Z,1009.5
2018-11-13T04:53:55.445Z,1009.6
2018-11-13T04:54:57.757Z,1009.6
2018-11-13T04:55:59.773Z,1009.6
2018-11-13T04:57:02.412Z,1009.6
2018-11-13T04:58:04.433Z,1009.5
2018-11-13T04:59:06.728Z,1009.5
2018-11-13T05:00:09.147Z,1009.5
2018-11-13T05:01:11.171Z,1009.5
2018-11-13T05:02:13.768Z,1009.6
2018-11-13T05:03:16.074Z,1009.6
2018-11-13T05:04:18.101Z,1009.6
2018-11-13T05:05:20.118Z,1009.6
2018-11-13T05:06:22.836Z,1009.6
2018-11-13T05:07:24.862Z,1009.6
2018-11-13T05:08:26.876Z,1009.6
2018-11-13T05:09:28.899Z,1009.6
2018-11-13T05:10:30.926Z,1009.6
2018-11-13T05:11:32.950Z,1009.6
2018-11-13T05:12:34.968Z,1009.6
2018-11-13T05:13:37.296Z,1009.6
2018-11-13T05:14:39.623Z,1009.6
2018-11-13T05:15:42.018Z,1009.7
2018-11-13T05:16:44.049Z,1009.7
2018-11-13T05:17:46.357Z,1009.8
2018-11-13T05:18:48.380Z,1009.8
2018-11-13T05:19:50.780Z,1009.8
2018-11-13T05:20:52.807Z,1009.9
2018-11-13T05:21:55.114Z,1009.9
2018-11-13T05:22:57.133Z,1009.9
2018-11-13T05:23:59.584Z,1010
2018-11-13T05:25:01.607Z,1009.9
2018-11-13T05:26:03.627Z,1010
2018-11-13T05:27:05.650Z,1010
2018-11-13T05:28:07.675Z,1010
2018-11-13T05:29:09.691Z,1009.9
2018-11-13T05:30:11.722Z,1009.9
2018-11-13T05:31:13.752Z,1009.9
2018-11-13T05:32:15.763Z,1009.9
2018-11-13T05:33:18.079Z,1009.9
2018-11-13T05:34:20.105Z,1010
2018-11-13T05:35:22.124Z,1010
2018-11-13T05:36:24.143Z,1010
2018-11-13T05:37:26.733Z,1010.1
2018-11-13T05:38:29.038Z,1010.1
2018-11-13T05:39:31.068Z,1010.1
2018-11-13T05:40:33.102Z,1010.2
2018-11-13T05:41:35.450Z,1010.2
2018-11-13T05:42:37.411Z,1010.2
2018-11-13T05:43:39.438Z,1010.2
2018-11-13T05:44:41.453Z,1010.2
2018-11-13T05:45:43.766Z,1010.3
2018-11-13T05:46:46.086Z,1010.3
2018-11-13T05:47:48.118Z,1010.3
2018-11-13T05:48:50.123Z,1010.4
2018-11-13T05:49:52.151Z,1010.4
2018-11-13T05:50:54.458Z,1010.4
2018-11-13T05:51:56.488Z,1010.4
2018-11-13T05:52:58.502Z,1010.5
2018-11-13T05:54:00.530Z,1010.5
2018-11-13T05:55:02.554Z,1010.5
2018-11-13T05:56:04.597Z,1010.5
2018-11-13T05:57:06.915Z,1010.6
2018-11-13T05:58:08.928Z,1010.6
2018-11-13T05:59:10.954Z,1010.7
2018-11-13T06:00:13.251Z,1010.6
2018-11-13T06:01:15.279Z,1010.6
2018-11-13T06:02:17.584Z,1010.5
2018-11-13T06:03:19.616Z,1010.4
2018-11-13T06:04:21.641Z,1010.4
2018-11-13T06:05:23.655Z,1010.3
2018-11-13T06:06:25.688Z,1010.3
2018-11-13T06:07:27.709Z,1010.2
2018-11-13T06:08:29.795Z,1010.3
2018-11-13T06:09:32.628Z,1010.4
2018-11-13T06:10:34.652Z,1010.5
2018-11-13T06:11:36.667Z,1010.5
2018-11-13T06:12:38.699Z,1010.4
2018-11-13T06:13:40.722Z,1010.5
2018-11-13T06:14:43.031Z,1010.5
2018-11-13T06:15:45.054Z,1010.5
2018-11-13T06:16:47.368Z,1010.4
2018-11-13T06:17:49.383Z,1010.4
2018-11-13T06:18:51.412Z,1010.4
2018-11-13T06:19:53.439Z,1010.5
2018-11-13T06:20:55.755Z,1010.4
2018-11-13T06:21:58.083Z,1010.4
2018-11-13T06:23:00.170Z,1010.4
2018-11-13T06:24:02.893Z,1010.4
2018-11-13T06:25:04.909Z,1010.4
2018-11-13T06:26:06.936Z,1010.4
2018-11-13T06:27:08.961Z,1010.3
2018-11-13T06:28:11.270Z,1010.3
2018-11-13T06:29:13.297Z,1010.3
2018-11-13T06:30:15.699Z,1010.3
2018-11-13T06:31:17.734Z,1010.3
2018-11-13T06:32:20.042Z,1010.3
2018-11-13T06:33:22.073Z,1010.3
2018-11-13T06:34:24.654Z,1010.3
2018-11-13T06:35:26.966Z,1010.3
2018-11-13T06:36:29.267Z,1010.3
2018-11-13T06:37:31.283Z,1010.2
2018-11-13T06:38:33.364Z,1010.2
2018-11-13T06:39:35.330Z,1010.2
2018-11-13T06:40:37.355Z,1010.2
2018-11-13T06:41:39.385Z,1010.2
2018-11-13T06:42:41.413Z,1010.1
2018-11-13T06:43:43.426Z,1010.1
2018-11-13T06:44:45.451Z,1010.2
2018-11-13T06:45:47.748Z,1010.2
2018-11-13T06:46:49.771Z,1010.2
2018-11-13T06:47:51.800Z,1010.2
2018-11-13T06:48:54.114Z,1010.3
2018-11-13T06:49:56.498Z,1010.3
2018-11-13T06:50:58.805Z,1010.3
2018-11-13T06:52:00.828Z,1010.3
2018-11-13T06:53:03.134Z,1010.4
2018-11-13T06:54:05.448Z,1010.4
2018-11-13T06:55:07.463Z,1010.4
2018-11-13T06:56:09.491Z,1010.4
2018-11-13T06:57:11.512Z,1010.4
2018-11-13T06:58:13.925Z,1010.5
2018-11-13T06:59:15.942Z,1010.5
2018-11-13T07:00:18.271Z,1010.4
2018-11-13T07:01:20.678Z,1010.5
2018-11-13T07:02:22.979Z,1010.5
2018-11-13T07:03:25.326Z,1010.5
2018-11-13T07:04:27.361Z,1010.5
2018-11-13T07:05:29.774Z,1010.5
2018-11-13T07:06:31.801Z,1010.5
2018-11-13T07:07:33.821Z,1010.5
2018-11-13T07:08:35.847Z,1010.6
2018-11-13T07:09:38.533Z,1010.6
2018-11-13T07:10:40.579Z,1010.6
2018-11-13T07:11:43.143Z,1010.6
2018-11-13T07:12:45.152Z,1010.6
2018-11-13T07:13:47.563Z,1010.7
2018-11-13T07:14:49.875Z,1010.7
2018-11-13T07:15:51.898Z,1010.7
2018-11-13T07:16:53.916Z,1010.7
2018-11-13T07:17:55.945Z,1010.9
2018-11-13T07:18:57.965Z,1010.8
2018-11-13T07:19:59.987Z,1010.8
2018-11-13T07:21:02.328Z,1010.8
2018-11-13T07:22:04.355Z,1010.8
2018-11-13T07:23:06.368Z,1010.8
2018-11-13T07:24:08.398Z,1010.8
2018-11-13T07:25:10.830Z,1010.8
2018-11-13T07:26:12.821Z,1010.8
2018-11-13T07:27:14.861Z,1010.8
2018-11-13T07:28:17.606Z,1010.9
2018-11-13T07:29:19.635Z,1010.9
2018-11-13T07:30:21.958Z,1010.9
2018-11-13T07:31:24.028Z,1010.8
2018-11-13T07:32:26.005Z,1010.8
2018-11-13T07:33:28.036Z,1010.8
2018-11-13T07:34:30.154Z,1010.8
2018-11-13T07:35:32.606Z,1010.7
2018-11-13T07:36:34.937Z,1010.7
2018-11-13T07:37:37.541Z,1010.7
2018-11-13T07:38:39.560Z,1010.8
2018-11-13T07:39:41.576Z,1010.8
2018-11-13T07:40:43.603Z,1010.8
2018-11-13T07:41:45.618Z,1010.8
2018-11-13T07:42:47.645Z,1010.8
2018-11-13T07:43:50.058Z,1010.8
2018-11-13T07:44:52.067Z,1010.8
2018-11-13T07:45:54.101Z,1010.8
2018-11-13T07:46:56.525Z,1010.7
2018-11-13T07:47:58.520Z,1010.7
2018-11-13T07:49:01.006Z,1010.8
2018-11-13T07:50:03.036Z,1010.8
2018-11-13T07:51:05.056Z,1010.8
2018-11-13T07:52:07.078Z,1010.8
2018-11-13T07:53:09.101Z,1010.8
2018-11-13T07:54:11.111Z,1010.8
2018-11-13T07:55:13.491Z,1010.8
2018-11-13T07:56:15.519Z,1010.7
2018-11-13T07:57:17.538Z,1010.7
2018-11-13T07:58:20.170Z,1010.7
2018-11-13T07:59:22.182Z,1010.7
2018-11-13T08:00:24.497Z,1010.7
2018-11-13T08:01:26.528Z,1010.7
2018-11-13T08:02:28.925Z,1010.7
2018-11-13T08:03:30.991Z,1010.7
2018-11-13T08:04:32.962Z,1010.7
2018-11-13T08:05:34.993Z,1010.6
2018-11-13T08:06:37.505Z,1010.7
2018-11-13T08:07:39.880Z,1010.6
2018-11-13T08:08:41.908Z,1010.6
2018-11-13T08:09:44.800Z,1010.5
2018-11-13T08:10:46.829Z,1010.5
2018-11-13T08:11:49.160Z,1010.6
2018-11-13T08:12:51.607Z,1010.5
2018-11-13T08:13:53.489Z,1010.6
2018-11-13T08:14:55.518Z,1010.6
2018-11-13T08:15:57.531Z,1010.6
2018-11-13T08:16:59.949Z,1010.6
2018-11-13T08:18:02.692Z,1010.6
2018-11-13T08:19:04.709Z,1010.6
2018-11-13T08:20:06.736Z,1010.6
2018-11-13T08:21:09.054Z,1010.6
2018-11-13T08:22:11.187Z,1010.6
2018-11-13T08:23:13.537Z,1010.6
2018-11-13T08:24:15.556Z,1010.7
2018-11-13T08:25:17.650Z,1010.7
2018-11-13T08:26:20.843Z,1010.7
2018-11-13T08:27:23.283Z,1010.7
2018-11-13T08:28:25.832Z,1010.7
2018-11-13T08:29:27.855Z,1010.7
2018-11-13T08:30:29.806Z,1010.7
2018-11-13T08:31:31.880Z,1010.7
2018-11-13T08:32:34.258Z,1010.7
2018-11-13T08:33:36.552Z,1010.7
2018-11-13T08:34:38.595Z,1010.7
2018-11-13T08:35:40.665Z,1010.6
2018-11-13T08:36:42.628Z,1010.6
2018-11-13T08:37:44.647Z,1010.7
2018-11-13T08:38:47.061Z,1010.7
2018-11-13T08:39:49.077Z,1010.7
2018-11-13T08:40:51.119Z,1010.7
2018-11-13T08:41:53.145Z,1010.8
2018-11-13T08:42:55.160Z,1010.8
2018-11-13T08:43:57.251Z,1010.8
2018-11-13T08:44:59.222Z,1010.8
2018-11-13T08:46:01.252Z,1010.8
2018-11-13T08:47:03.585Z,1010.9
2018-11-13T08:48:05.601Z,1011
2018-11-13T08:49:07.618Z,1011
2018-11-13T08:50:09.946Z,1011.1
2018-11-13T08:51:11.960Z,1011.1
2018-11-13T08:52:14.264Z,1011.1
2018-11-13T08:53:16.287Z,1011.1
2018-11-13T08:54:18.314Z,1011.1
2018-11-13T08:55:20.365Z,1011.2
2018-11-13T08:56:22.673Z,1011.1
2018-11-13T08:57:24.700Z,1011.2
2018-11-13T08:58:26.776Z,1011.1
2018-11-13T08:59:28.806Z,1011.2
2018-11-13T09:00:30.786Z,1011.2
2018-11-13T09:01:32.809Z,1011.2
2018-11-13T09:02:35.210Z,1011.2
2018-11-13T09:03:37.240Z,1011.2
2018-11-13T09:04:39.259Z,1011.2
2018-11-13T09:05:41.275Z,1011.3
2018-11-13T09:06:43.587Z,1011.2
2018-11-13T09:07:45.600Z,1011.2
2018-11-13T09:08:47.629Z,1011.2
2018-11-13T09:09:49.653Z,1011.1
2018-11-13T09:10:51.679Z,1011.1
2018-11-13T09:11:53.826Z,1011.1
2018-11-13T09:12:55.729Z,1011.1
2018-11-13T09:13:57.749Z,1011.1
2018-11-13T09:15:00.342Z,1011.1
2018-11-13T09:16:02.665Z,1011.1
2018-11-13T09:17:04.678Z,1011.1
2018-11-13T09:18:06.757Z,1011.1
2018-11-13T09:19:08.880Z,1011
2018-11-13T09:20:11.307Z,1011.1
2018-11-13T09:21:13.330Z,1011.1
2018-11-13T09:22:15.742Z,1011.2
2018-11-13T09:23:18.157Z,1011.2
2018-11-13T09:24:20.502Z,1011.2
2018-11-13T09:25:22.537Z,1011.2
2018-11-13T09:26:24.563Z,1011.2
2018-11-13T09:27:26.863Z,1011.2
2018-11-13T09:28:28.889Z,1011.2
2018-11-13T09:29:31.209Z,1011.2
2018-11-13T09:30:33.486Z,1011.2
2018-11-13T09:31:35.321Z,1011.2
2018-11-13T09:32:37.687Z,1011.2
2018-11-13T09:33:40.150Z,1011.3
2018-11-13T09:34:43.029Z,1011.2
2018-11-13T09:35:45.049Z,1011.3
2018-11-13T09:36:47.080Z,1011.3
2018-11-13T09:37:49.098Z,1011.3
2018-11-13T09:38:51.121Z,1011.2
2018-11-13T09:39:53.150Z,1011.1
2018-11-13T09:40:55.165Z,1011.1
2018-11-13T09:41:57.189Z,1011.1
2018-11-13T09:42:59.208Z,1011.1
2018-11-13T09:44:01.236Z,1011.1
2018-11-13T09:45:03.640Z,1011.2
2018-11-13T09:46:06.220Z,1011.1
2018-11-13T09:47:09.688Z,1011.1
2018-11-13T09:48:11.945Z,1011.2
2018-11-13T09:49:13.982Z,1011.1
2018-11-13T09:50:16.275Z,1011.2
2018-11-13T09:51:18.304Z,1011.2
2018-11-13T09:52:20.322Z,1011.2
2018-11-13T09:53:22.499Z,1011.3
2018-11-13T09:54:24.372Z,1011.3
2018-11-13T09:55:26.782Z,1011.3
2018-11-13T09:56:28.826Z,1011.2
2018-11-13T09:57:30.752Z,1011.3
2018-11-13T09:58:33.519Z,1011.2
2018-11-13T09:59:35.511Z,1011.3
2018-11-13T10:00:37.728Z,1011.3
2018-11-13T10:01:40.411Z,1011.2
2018-11-13T10:02:42.848Z,1011.3
2018-11-13T10:03:44.978Z,1011.2
2018-11-13T10:04:46.952Z,1011.2
2018-11-13T10:05:48.426Z,1011.2
2018-11-13T10:06:50.785Z,1011.2
2018-11-13T10:07:53.602Z,1011.2
2018-11-13T10:08:55.630Z,1011.1
2018-11-13T10:09:57.649Z,1011.1
2018-11-13T10:10:59.969Z,1011.1
2018-11-13T10:12:02.000Z,1011
2018-11-13T10:13:04.030Z,1011
2018-11-13T10:14:06.047Z,1011
2018-11-13T10:15:08.081Z,1011
2018-11-13T10:16:10.390Z,1011
2018-11-13T10:17:12.436Z,1011
2018-11-13T10:18:14.733Z,1011
2018-11-13T10:19:16.976Z,1011.1
2018-11-13T10:20:19.000Z,1011
2018-11-13T10:21:21.308Z,1011.1
2018-11-13T10:22:23.361Z,1011.1
2018-11-13T10:23:26.045Z,1011.1
2018-11-13T10:24:28.073Z,1011.1
2018-11-13T10:25:30.372Z,1011
2018-11-13T10:26:32.509Z,1011
2018-11-13T10:27:34.432Z,1011
2018-11-13T10:28:36.460Z,1011
2018-11-13T10:29:38.494Z,1011
2018-11-13T10:30:40.796Z,1011
2018-11-13T10:31:42.826Z,1011
2018-11-13T10:32:45.626Z,1011
2018-11-13T10:33:48.363Z,1011
2018-11-13T10:34:50.396Z,1011
2018-11-13T10:35:52.707Z,1010.9
2018-11-13T10:36:54.726Z,1010.9
2018-11-13T10:37:56.756Z,1011
2018-11-13T10:38:58.778Z,1010.9
2018-11-13T10:40:00.792Z,1010.9
2018-11-13T10:41:03.891Z,1010.9
2018-11-13T10:42:05.914Z,1011
2018-11-13T10:43:07.934Z,1011
2018-11-13T10:44:10.247Z,1011
2018-11-13T10:45:12.555Z,1010.9
2018-11-13T10:46:14.880Z,1010.9
2018-11-13T10:47:16.914Z,1010.9
2018-11-13T10:48:19.220Z,1010.9
2018-11-13T10:49:21.248Z,1010.8
2018-11-13T10:50:23.308Z,1010.8
2018-11-13T10:51:26.259Z,1010.8
2018-11-13T10:52:28.291Z,1010.8
2018-11-13T10:53:30.317Z,1010.8
2018-11-13T10:54:32.335Z,1010.8
2018-11-13T10:55:34.370Z,1010.8
2018-11-13T10:56:36.537Z,1010.8
2018-11-13T10:57:38.415Z,1010.8
2018-11-13T10:58:41.021Z,1010.9
2018-11-13T10:59:43.052Z,1010.8
2018-11-13T11:00:45.456Z,1010.8
2018-11-13T11:01:47.490Z,1010.8
2018-11-13T11:02:50.002Z,1010.8
2018-11-13T11:03:51.935Z,1010.8
2018-11-13T11:04:54.349Z,1010.7
2018-11-13T11:05:56.768Z,1010.7
2018-11-13T11:06:58.789Z,1010.7
2018-11-13T11:08:00.810Z,1010.7
2018-11-13T11:09:02.843Z,1010.8
2018-11-13T11:10:05.255Z,1010.8
2018-11-13T11:11:07.575Z,1010.7
2018-11-13T11:12:09.908Z,1010.7
2018-11-13T11:13:12.119Z,1010.6
2018-11-13T11:14:15.254Z,1010.6
2018-11-13T11:15:17.299Z,1010.7
2018-11-13T11:16:19.604Z,1010.7
2018-11-13T11:17:21.630Z,1010.8
2018-11-13T11:18:23.660Z,1010.7
2018-11-13T11:19:26.269Z,1010.7
2018-11-13T11:20:28.608Z,1010.7
2018-11-13T11:21:30.636Z,1010.7
2018-11-13T11:22:33.250Z,1010.7
2018-11-13T11:23:35.419Z,1010.7
2018-11-13T11:24:37.302Z,1010.7
2018-11-13T11:25:39.321Z,1010.7
2018-11-13T11:26:41.349Z,1010.7
2018-11-13T11:27:43.408Z,1010.8
2018-11-13T11:28:45.391Z,1010.8
2018-11-13T11:29:47.426Z,1010.8
2018-11-13T11:30:49.512Z,1010.9
2018-11-13T11:31:52.276Z,1010.9
2018-11-13T11:32:54.294Z,1010.9
2018-11-13T11:33:56.324Z,1010.9
2018-11-13T11:34:58.347Z,1011
2018-11-13T11:36:00.369Z,1011
2018-11-13T11:37:02.410Z,1011
2018-11-13T11:38:04.428Z,1010.9
2018-11-13T11:39:06.534Z,1010.9
2018-11-13T11:40:08.493Z,1010.9
2018-11-13T11:41:10.523Z,1010.9
2018-11-13T11:42:12.831Z,1010.9
2018-11-13T11:43:14.868Z,1011
2018-11-13T11:44:17.622Z,1011
2018-11-13T11:45:19.585Z,1010.9
2018-11-13T11:46:21.624Z,1011
2018-11-13T11:47:23.939Z,1011
2018-11-13T11:48:25.965Z,1010.9
2018-11-13T11:49:27.996Z,1010.9
2018-11-13T11:50:30.023Z,1010.9
2018-11-13T11:51:32.329Z,1011
2018-11-13T11:52:34.363Z,1010.9
2018-11-13T11:53:37.047Z,1010.8
2018-11-13T11:54:39.365Z,1010.8
2018-11-13T11:55:41.393Z,1010.8
2018-11-13T11:56:43.428Z,1010.8
2018-11-13T11:57:45.736Z,1010.8
2018-11-13T11:58:47.766Z,1010.8
2018-11-13T11:59:49.791Z,1010.9
2018-11-13T12:00:52.275Z,1010.8
2018-11-13T12:01:54.242Z,1010.9
2018-11-13T12:02:56.257Z,1010.9
2018-11-13T12:03:58.573Z,1010.9
2018-11-13T12:05:00.589Z,1010.9
2018-11-13T12:06:02.621Z,1010.8
2018-11-13T12:07:04.644Z,1010.8
2018-11-13T12:08:06.667Z,1010.9
2018-11-13T12:09:08.981Z,1010.9
2018-11-13T12:10:11.592Z,1010.9
2018-11-13T12:11:13.610Z,1010.9
2018-11-13T12:12:15.652Z,1010.9
2018-11-13T12:13:17.671Z,1010.9
2018-11-13T12:14:20.271Z,1011
2018-11-13T12:15:22.292Z,1011
2018-11-13T12:16:25.003Z,1011
2018-11-13T12:17:27.303Z,1011
2018-11-13T12:18:29.336Z,1011
2018-11-13T12:19:31.912Z,1011
2018-11-13T12:20:33.833Z,1011
2018-11-13T12:21:35.852Z,1011
2018-11-13T12:22:38.300Z,1011
2018-11-13T12:23:40.322Z,1011
2018-11-13T12:24:42.343Z,1011
2018-11-13T12:25:44.432Z,1011.1
2018-11-13T12:26:46.405Z,1011
2018-11-13T12:27:48.437Z,1011.1
2018-11-13T12:28:50.498Z,1011
2018-11-13T12:29:52.829Z,1011
2018-11-13T12:30:54.851Z,1011
2018-11-13T12:31:56.885Z,1011
2018-11-13T12:32:58.936Z,1010.9
2018-11-13T12:34:00.955Z,1011
2018-11-13T12:35:02.992Z,1011.1
2018-11-13T12:36:05.208Z,1011.1
2018-11-13T12:37:07.231Z,1011.2
2018-11-13T12:38:09.253Z,1011.1
2018-11-13T12:39:11.575Z,1011.2
2018-11-13T12:40:13.596Z,1011.1
2018-11-13T12:41:15.634Z,1011
2018-11-13T12:42:17.664Z,1011.2
2018-11-13T12:43:19.964Z,1011.1
2018-11-13T12:44:22.584Z,1011.1
2018-11-13T12:45:24.631Z,1011.1
2018-11-13T12:46:26.705Z,1011.1
2018-11-13T12:47:29.089Z,1011.1
2018-11-13T12:48:31.107Z,1011.1
2018-11-13T12:49:33.140Z,1011.1
2018-11-13T12:50:35.162Z,1011
2018-11-13T12:51:37.584Z,1011
2018-11-13T12:52:39.616Z,1011.1
2018-11-13T12:53:42.027Z,1011
2018-11-13T12:54:44.048Z,1011
2018-11-13T12:55:46.937Z,1011
2018-11-13T12:56:48.871Z,1011.1
2018-11-13T12:57:50.890Z,1011
2018-11-13T12:58:52.923Z,1011
2018-11-13T12:59:54.935Z,1011
2018-11-13T13:00:56.971Z,1011.1